Time;durP1;ratioP1;P1;durP2;ratioP2;P2;SDS_P1;SDS_P2;PMS_P1;PMS_P2;Temp;Humidity;BMP_temperature;BMP_pressure;BME280_temperature;BME280_humidity;BME280_pressure;Samples;Min_cycle;Max_cycle;Signal;HPM_P1;HPM_P2
2021/03/10 00:01:19;;;;;;;48.57;26.90;;;3.60;99.90;;;;;;5086313;28;20237;-81
2021/03/10 00:03:45;;;;;;;49.83;26.40;;;3.70;99.90;;;;;;5086603;28;20206;-81
2021/03/10 00:06:13;;;;;;;51.43;27.20;;;3.80;99.90;;;;;;5094056;28;20225;-82
2021/03/10 00:08:40;;;;;;;54.27;28.63;;;3.70;99.90;;;;;;5092232;28;20206;-81
2021/03/10 00:11:10;;;;;;;53.73;28.30;;;3.70;99.90;;;;;;5101767;28;20233;-80
2021/03/10 00:13:38;;;;;;;59.80;28.07;;;3.70;99.90;;;;;;5096758;28;20210;-82
2021/03/10 00:16:08;;;;;;;59.07;30.40;;;3.70;99.90;;;;;;5100521;28;20226;-82
2021/03/10 00:18:40;;;;;;;56.10;28.70;;;3.70;99.90;;;;;;5100428;28;20209;-82
2021/03/10 00:21:12;;;;;;;54.53;28.20;;;3.80;99.90;;;;;;5103997;28;20423;-82
2021/03/10 00:23:39;;;;;;;60.53;29.50;;;3.70;99.90;;;;;;5095076;28;20206;-81
2021/03/10 00:26:05;;;;;;;56.73;26.60;;;3.70;99.90;;;;;;5091342;28;20225;-80
2021/03/10 00:28:35;;;;;;;52.60;28.70;;;3.70;99.90;;;;;;5101256;28;20209;-81
2021/03/10 00:31:06;;;;;;;52.50;26.43;;;3.70;99.90;;;;;;5091598;28;20203;-82
2021/03/10 00:33:32;;;;;;;54.70;26.70;;;3.70;99.90;;;;;;5097690;28;20238;-82
2021/03/10 00:35:59;;;;;;;55.80;27.87;;;3.70;99.90;;;;;;5089500;28;20230;-82
2021/03/10 00:38:28;;;;;;;53.30;27.23;;;3.70;99.90;;;;;;5100234;28;20278;-81
2021/03/10 00:40:56;;;;;;;55.03;28.33;;;3.70;99.90;;;;;;5094790;28;20221;-82
2021/03/10 00:43:23;;;;;;;59.60;28.07;;;3.70;99.90;;;;;;5090183;28;20239;-81
2021/03/10 00:45:52;;;;;;;57.97;28.83;;;3.70;99.90;;;;;;5091099;28;20252;-82
2021/03/10 00:48:22;;;;;;;55.97;28.07;;;3.70;99.90;;;;;;5087740;28;20229;-81
2021/03/10 00:50:49;;;;;;;56.77;29.07;;;3.70;99.90;;;;;;5085170;28;20290;-81
2021/03/10 00:53:17;;;;;;;51.60;27.70;;;3.80;99.90;;;;;;5083501;28;20240;-81
2021/03/10 00:55:44;;;;;;;51.77;27.43;;;3.70;99.90;;;;;;5090986;28;20271;-82
2021/03/10 00:58:10;;;;;;;52.67;27.97;;;3.70;99.90;;;;;;5084983;28;20227;-81
2021/03/10 01:00:39;;;;;;;55.87;29.50;;;3.70;99.90;;;;;;5089409;28;20975;-81
2021/03/10 01:03:05;;;;;;;54.70;29.13;;;3.70;99.90;;;;;;5086975;28;20228;-82
2021/03/10 01:05:33;;;;;;;54.40;27.47;;;3.70;99.90;;;;;;5082049;28;20232;-82
2021/03/10 01:07:59;;;;;;;53.73;27.43;;;3.80;99.90;;;;;;5082915;28;20198;-82
2021/03/10 01:10:25;;;;;;;54.80;27.27;;;3.80;99.90;;;;;;5083818;28;20286;-81
2021/03/10 01:12:52;;;;;;;52.57;28.20;;;3.90;99.90;;;;;;5080631;28;20311;-82
2021/03/10 01:15:20;;;;;;;53.07;27.43;;;3.90;99.90;;;;;;5091001;28;20289;-81
2021/03/10 01:17:47;;;;;;;54.33;28.33;;;3.80;99.90;;;;;;5085144;28;20241;-82
2021/03/10 01:20:15;;;;;;;53.57;27.80;;;3.80;99.90;;;;;;5084550;28;20194;-81
2021/03/10 01:22:42;;;;;;;54.33;28.67;;;3.80;99.90;;;;;;5084396;28;20208;-82
2021/03/10 01:25:11;;;;;;;52.40;27.43;;;3.80;99.90;;;;;;5084596;28;20202;-81
2021/03/10 01:27:37;;;;;;;52.67;27.10;;;3.80;99.90;;;;;;5083910;28;20272;-82
2021/03/10 01:30:04;;;;;;;53.93;28.07;;;3.70;99.90;;;;;;5084185;28;20209;-81
2021/03/10 01:32:31;;;;;;;57.30;28.33;;;3.70;99.90;;;;;;5092227;28;20193;-82
2021/03/10 01:34:57;;;;;;;51.90;27.37;;;3.80;99.90;;;;;;5087893;28;20209;-82
2021/03/10 01:37:24;;;;;;;58.30;30.33;;;3.80;99.90;;;;;;5087109;28;20240;-83
2021/03/10 01:39:51;;;;;;;55.57;28.17;;;3.70;99.90;;;;;;5083744;28;20688;-82
2021/03/10 01:42:17;;;;;;;58.10;30.10;;;3.80;99.90;;;;;;5089656;28;20587;-82
2021/03/10 01:44:44;;;;;;;57.00;28.90;;;3.80;99.90;;;;;;5082510;28;20232;-81
2021/03/10 01:47:10;;;;;;;54.40;29.93;;;3.80;99.90;;;;;;5086057;28;20228;-83
2021/03/10 01:49:37;;;;;;;57.00;28.87;;;3.80;99.90;;;;;;5084936;28;20207;-83
2021/03/10 01:52:04;;;;;;;54.07;28.37;;;3.80;99.90;;;;;;5081652;28;20209;-82
2021/03/10 01:54:30;;;;;;;52.37;28.50;;;3.80;99.90;;;;;;5092267;28;20229;-82
2021/03/10 01:56:58;;;;;;;51.93;27.10;;;3.80;99.90;;;;;;5088134;28;20213;-83
2021/03/10 01:59:25;;;;;;;55.90;28.93;;;3.70;99.90;;;;;;5083523;28;20238;-83
2021/03/10 02:01:51;;;;;;;51.27;26.37;;;3.70;99.90;;;;;;5089894;28;20218;-82
2021/03/10 02:04:18;;;;;;;51.17;27.23;;;3.80;99.90;;;;;;5089230;28;20662;-82
2021/03/10 02:06:55;;;;;;;50.70;28.20;;;3.80;99.90;;;;;;5085820;28;20655;-82
2021/03/10 02:09:27;;;;;;;53.97;27.67;;;3.70;99.90;;;;;;5081818;28;20284;-83
2021/03/10 02:12:02;;;;;;;51.67;27.47;;;3.70;99.90;;;;;;5082155;28;20240;-81
2021/03/10 02:14:37;;;;;;;54.27;30.33;;;3.80;99.90;;;;;;5084245;28;20220;-81
2021/03/10 02:17:07;;;;;;;55.27;28.60;;;3.80;99.90;;;;;;5081932;28;20755;-82
2021/03/10 02:20:06;;;;;;;54.60;29.40;;;3.80;99.90;;;;;;5086260;28;20674;-82
2021/03/10 02:23:17;;;;;;;51.37;27.93;;;3.80;99.90;;;;;;5083874;28;20630;-82
2021/03/10 02:26:19;;;;;;;55.63;28.37;;;3.80;99.90;;;;;;5068884;28;20237;-83
2021/03/10 02:28:48;;;;;;;54.40;29.40;;;3.80;99.90;;;;;;5087076;28;20265;-81
2021/03/10 02:31:16;;;;;;;52.30;27.40;;;3.80;99.90;;;;;;5094642;28;20715;-82
2021/03/10 02:33:44;;;;;;;54.87;30.50;;;3.80;99.90;;;;;;5087541;28;20233;-81
2021/03/10 02:36:12;;;;;;;49.27;27.23;;;3.80;99.90;;;;;;5095729;28;20278;-82
2021/03/10 02:38:42;;;;;;;52.17;28.07;;;3.80;99.90;;;;;;5095247;28;20708;-82
2021/03/10 02:41:09;;;;;;;53.17;28.60;;;3.80;99.90;;;;;;5093652;28;20250;-81
2021/03/10 02:43:37;;;;;;;55.30;28.20;;;3.80;99.90;;;;;;5095648;28;20225;-82
2021/03/10 02:46:06;;;;;;;54.90;29.63;;;3.80;99.90;;;;;;5096695;28;20652;-83
2021/03/10 02:48:33;;;;;;;49.83;28.10;;;3.70;99.90;;;;;;5084004;28;20207;-83
2021/03/10 02:51:01;;;;;;;52.37;27.70;;;3.80;99.90;;;;;;5095242;28;20206;-83
2021/03/10 02:53:27;;;;;;;49.37;27.67;;;3.80;99.90;;;;;;5088053;28;20278;-82
2021/03/10 02:55:54;;;;;;;50.50;28.63;;;3.70;99.90;;;;;;5095376;28;20278;-82
2021/03/10 02:58:21;;;;;;;48.87;27.37;;;3.80;99.90;;;;;;5085258;28;20301;-81
2021/03/10 03:00:47;;;;;;;47.83;27.37;;;3.80;99.90;;;;;;5083628;28;20245;-81
2021/03/10 03:03:15;;;;;;;47.63;26.87;;;3.80;99.90;;;;;;5094629;28;20287;-81
2021/03/10 03:05:41;;;;;;;52.63;27.90;;;3.80;99.90;;;;;;5092080;28;20270;-81
2021/03/10 03:08:08;;;;;;;48.70;27.63;;;3.80;99.90;;;;;;5094329;28;20195;-83
2021/03/10 03:10:37;;;;;;;49.53;27.73;;;3.80;99.90;;;;;;5095995;28;20217;-82
2021/03/10 03:13:07;;;;;;;46.37;26.27;;;3.80;99.90;;;;;;5085569;28;20210;-82
2021/03/10 03:15:34;;;;;;;48.67;28.23;;;3.70;99.90;;;;;;5091624;28;20197;-82
2021/03/10 03:18:02;;;;;;;52.90;26.30;;;3.80;99.90;;;;;;5090122;28;20654;-80
2021/03/10 03:20:29;;;;;;;51.43;27.53;;;3.70;99.90;;;;;;5093009;28;20355;-82
2021/03/10 03:22:58;;;;;;;48.17;26.63;;;3.70;99.90;;;;;;5092169;28;20674;-82
2021/03/10 03:25:27;;;;;;;49.83;27.77;;;3.70;99.90;;;;;;5097307;28;20635;-82
2021/03/10 03:27:57;;;;;;;47.10;27.40;;;3.90;99.90;;;;;;5094966;28;20209;-82
2021/03/10 03:30:25;;;;;;;47.37;26.67;;;3.70;99.90;;;;;;5098738;28;20218;-81
2021/03/10 03:32:54;;;;;;;45.83;24.70;;;3.70;99.90;;;;;;5083931;28;20201;-82
2021/03/10 03:35:21;;;;;;;51.27;27.40;;;3.70;99.90;;;;;;5087065;28;20226;-82
2021/03/10 03:37:51;;;;;;;44.33;25.80;;;3.60;99.90;;;;;;5097273;28;20234;-81
2021/03/10 03:40:19;;;;;;;45.63;25.17;;;3.50;99.90;;;;;;5092644;28;20693;-82
2021/03/10 03:42:46;;;;;;;44.70;23.60;;;3.50;99.90;;;;;;5084354;28;20686;-81
2021/03/10 03:45:16;;;;;;;46.60;26.57;;;3.50;99.90;;;;;;5094543;28;20566;-82
2021/03/10 03:47:43;;;;;;;41.10;23.87;;;3.50;99.90;;;;;;5084196;28;20227;-82
2021/03/10 03:50:11;;;;;;;43.37;25.50;;;3.60;99.90;;;;;;5096721;28;20675;-82
2021/03/10 03:52:40;;;;;;;44.00;24.63;;;3.50;99.90;;;;;;5093420;28;20249;-81
2021/03/10 03:55:09;;;;;;;43.80;25.17;;;3.40;99.90;;;;;;5077134;28;20305;-82
2021/03/10 03:57:36;;;;;;;46.53;26.33;;;3.40;99.90;;;;;;5090145;28;20230;-82
2021/03/10 04:00:05;;;;;;;43.27;26.70;;;3.50;99.90;;;;;;5089270;28;20684;-81
2021/03/10 04:02:31;;;;;;;45.43;25.27;;;3.50;99.90;;;;;;5086311;28;20217;-81
2021/03/10 04:04:58;;;;;;;46.97;27.93;;;3.70;99.90;;;;;;5088416;28;20210;-82
2021/03/10 04:07:28;;;;;;;45.47;26.30;;;3.60;99.90;;;;;;5087453;28;20244;-82
2021/03/10 04:09:55;;;;;;;44.83;24.93;;;3.70;99.90;;;;;;5095908;28;20402;-82
2021/03/10 04:12:22;;;;;;;44.77;25.10;;;3.70;99.90;;;;;;5095902;28;20662;-82
2021/03/10 04:14:48;;;;;;;45.33;25.43;;;3.50;99.90;;;;;;5092031;28;20206;-81
2021/03/10 04:17:15;;;;;;;45.27;24.33;;;3.50;99.90;;;;;;5091183;28;20257;-81
2021/03/10 04:19:42;;;;;;;46.73;25.37;;;3.50;99.90;;;;;;5093253;28;20233;-82
2021/03/10 04:22:09;;;;;;;45.30;25.23;;;3.60;99.90;;;;;;5090079;28;20214;-82
2021/03/10 04:24:35;;;;;;;46.63;25.93;;;3.60;99.90;;;;;;5094098;28;20209;-82
2021/03/10 04:27:02;;;;;;;47.97;26.07;;;3.50;99.90;;;;;;5087993;28;20213;-82
2021/03/10 04:29:29;;;;;;;47.60;25.87;;;3.50;99.90;;;;;;5089087;28;20276;-82
2021/03/10 04:31:55;;;;;;;45.70;25.50;;;3.60;99.90;;;;;;5093099;28;20214;-82
2021/03/10 04:34:21;;;;;;;49.03;26.53;;;3.60;99.90;;;;;;5079811;28;20194;-82
2021/03/10 04:36:48;;;;;;;49.97;27.97;;;3.60;99.90;;;;;;5091996;28;20308;-82
2021/03/10 04:39:14;;;;;;;47.90;26.47;;;3.50;99.90;;;;;;5084919;28;20229;-82
2021/03/10 04:41:41;;;;;;;53.07;27.07;;;3.40;99.90;;;;;;5094192;28;20253;-82
2021/03/10 04:44:08;;;;;;;51.37;27.53;;;3.50;99.90;;;;;;5099067;28;20212;-79
2021/03/10 04:46:35;;;;;;;50.77;28.33;;;3.50;99.90;;;;;;5095710;28;20233;-81
2021/03/10 04:49:02;;;;;;;49.23;26.93;;;3.50;99.90;;;;;;5095247;28;20555;-81
2021/03/10 04:51:28;;;;;;;57.10;28.43;;;3.50;99.90;;;;;;5090601;28;20200;-81
2021/03/10 04:56:48;;;;;;;50.07;27.17;;;3.50;99.90;;;;;;5093678;28;20222;-81
2021/03/10 04:59:28;;;;;;;49.83;27.63;;;3.50;99.90;;;;;;5109990;28;20220;-82
2021/03/10 05:01:57;;;;;;;47.47;26.10;;;3.50;99.90;;;;;;5095736;28;20230;-82
2021/03/10 05:04:24;;;;;;;53.30;28.20;;;3.40;99.90;;;;;;5098366;28;20380;-81
2021/03/10 05:06:51;;;;;;;49.40;26.17;;;3.30;99.90;;;;;;5104338;28;20217;-81
2021/03/10 05:09:19;;;;;;;53.00;27.53;;;3.40;99.90;;;;;;5098875;28;20193;-82
2021/03/10 05:11:46;;;;;;;51.30;27.70;;;3.50;99.90;;;;;;5086135;28;20234;-81
2021/03/10 05:14:12;;;;;;;55.80;29.07;;;3.50;99.90;;;;;;5093327;28;20209;-80
2021/03/10 05:16:39;;;;;;;51.70;28.13;;;3.50;99.90;;;;;;5089566;28;20225;-81
2021/03/10 05:19:07;;;;;;;54.87;28.43;;;3.50;99.90;;;;;;5095301;28;20252;-82
2021/03/10 05:21:34;;;;;;;51.10;27.30;;;3.50;99.90;;;;;;5086069;28;20226;-81
2021/03/10 05:24:11;;;;;;;51.63;26.73;;;3.40;99.90;;;;;;5104578;28;20202;-82
2021/03/10 05:26:38;;;;;;;50.53;26.77;;;3.30;99.90;;;;;;5086152;28;20284;-79
2021/03/10 05:29:05;;;;;;;51.30;27.43;;;3.40;99.90;;;;;;5091313;28;20297;-82
2021/03/10 05:31:32;;;;;;;51.70;26.77;;;3.40;99.90;;;;;;5092932;28;20205;-82
2021/03/10 05:34:01;;;;;;;46.70;27.50;;;3.40;99.90;;;;;;5094130;28;20251;-81
2021/03/10 05:36:31;;;;;;;49.40;26.77;;;3.40;99.90;;;;;;5092793;28;20257;-82
2021/03/10 05:38:58;;;;;;;47.67;24.97;;;3.40;99.90;;;;;;5097062;28;20259;-81
2021/03/10 05:41:26;;;;;;;51.67;29.27;;;3.40;99.90;;;;;;5101483;28;20252;-83
2021/03/10 05:43:57;;;;;;;43.53;24.40;;;3.40;99.90;;;;;;5101192;28;20197;-82
2021/03/10 05:46:25;;;;;;;47.27;25.87;;;3.30;99.90;;;;;;5100051;28;20251;-82
2021/03/10 05:48:52;;;;;;;50.33;26.77;;;3.40;99.90;;;;;;5095219;28;20237;-82
2021/03/10 05:51:22;;;;;;;50.67;27.03;;;3.40;99.90;;;;;;5096531;28;20260;-82
2021/03/10 05:53:52;;;;;;;47.37;25.53;;;3.40;99.90;;;;;;5105541;28;20237;-82
2021/03/10 05:56:19;;;;;;;49.90;26.80;;;3.50;99.90;;;;;;5108929;28;20255;-80
2021/03/10 05:58:56;;;;;;;47.87;26.50;;;3.50;99.90;;;;;;5095729;28;20221;-81
2021/03/10 06:01:26;;;;;;;48.63;26.13;;;3.50;99.90;;;;;;5095879;28;20259;-80
2021/03/10 06:03:57;;;;;;;50.57;27.17;;;3.50;99.90;;;;;;5091167;28;20553;-80
2021/03/10 06:06:27;;;;;;;51.90;29.17;;;3.50;99.90;;;;;;5095325;28;20221;-80
2021/03/10 06:08:57;;;;;;;51.97;28.60;;;3.50;99.90;;;;;;5095404;28;20290;-81
2021/03/10 06:11:25;;;;;;;54.23;27.53;;;3.50;99.90;;;;;;5096599;28;20214;-81
2021/03/10 06:13:55;;;;;;;50.37;26.77;;;3.50;99.90;;;;;;5094231;28;20296;-80
2021/03/10 06:16:30;;;;;;;49.37;27.90;;;3.40;99.90;;;;;;5096910;28;20248;-79
2021/03/10 06:19:03;;;;;;;50.60;26.67;;;3.30;99.90;;;;;;5099471;28;20225;-81
2021/03/10 06:21:33;;;;;;;53.50;28.00;;;3.40;99.90;;;;;;5093710;28;20225;-80
2021/03/10 06:24:03;;;;;;;47.33;25.53;;;3.50;99.90;;;;;;5091618;28;20273;-80
2021/03/10 06:26:35;;;;;;;42.60;24.30;;;3.70;99.90;;;;;;5090131;28;20724;-80
2021/03/10 06:29:13;;;;;;;48.47;26.17;;;3.80;99.90;;;;;;5095326;28;20212;-80
2021/03/10 06:31:39;;;;;;;48.40;26.80;;;3.90;99.90;;;;;;5093948;28;20716;-81
2021/03/10 06:34:13;;;;;;;47.93;26.27;;;4.00;99.90;;;;;;5092468;28;20795;-81
2021/03/10 06:36:44;;;;;;;48.77;26.57;;;4.00;99.90;;;;;;5092342;28;20648;-79
2021/03/10 06:39:24;;;;;;;48.63;25.37;;;4.00;99.90;;;;;;5095406;28;20278;-79
2021/03/10 06:41:51;;;;;;;50.67;26.87;;;3.90;99.90;;;;;;5095176;28;20221;-80
2021/03/10 06:44:19;;;;;;;49.23;27.20;;;3.90;99.90;;;;;;5094618;28;20254;-80
2021/03/10 06:46:56;;;;;;;52.93;27.60;;;3.90;99.90;;;;;;5097200;28;20225;-81
2021/03/10 06:49:27;;;;;;;50.90;27.33;;;3.90;99.90;;;;;;5095083;28;20201;-81
2021/03/10 06:51:55;;;;;;;48.43;27.17;;;4.00;99.90;;;;;;5091390;28;20201;-81
2021/03/10 06:54:27;;;;;;;49.03;26.80;;;3.90;99.90;;;;;;5096194;28;20704;-81
2021/03/10 06:57:04;;;;;;;49.43;26.27;;;4.00;99.90;;;;;;5097921;28;20225;-80
2021/03/10 06:59:43;;;;;;;51.30;27.60;;;4.10;99.90;;;;;;5090969;28;20240;-81
2021/03/10 07:02:14;;;;;;;49.53;27.57;;;4.10;99.90;;;;;;5098094;28;20696;-80
2021/03/10 07:04:45;;;;;;;46.17;25.80;;;4.10;99.90;;;;;;5097074;28;20259;-80
2021/03/10 07:07:13;;;;;;;50.83;26.33;;;4.10;99.90;;;;;;5097710;28;20226;-80
2021/03/10 07:09:42;;;;;;;44.73;25.57;;;4.10;99.90;;;;;;5094004;28;20610;-81
2021/03/10 07:12:11;;;;;;;48.57;26.87;;;4.20;99.90;;;;;;5097949;28;20216;-81
2021/03/10 07:14:38;;;;;;;46.23;25.57;;;4.20;99.90;;;;;;5100256;28;20202;-80
2021/03/10 07:17:09;;;;;;;44.93;25.50;;;4.30;99.90;;;;;;5098719;28;20233;-81
2021/03/10 07:19:36;;;;;;;46.97;27.23;;;4.30;99.90;;;;;;5097854;28;20219;-79
2021/03/10 07:22:11;;;;;;;47.03;26.57;;;4.40;99.90;;;;;;5098435;28;20217;-80
2021/03/10 07:24:42;;;;;;;46.00;25.50;;;4.50;99.90;;;;;;5087323;28;20262;-80
2021/03/10 07:27:15;;;;;;;45.23;24.93;;;4.50;99.90;;;;;;5099508;28;20252;-80
2021/03/10 07:29:42;;;;;;;49.80;27.10;;;4.50;99.90;;;;;;5092901;28;20551;-81
2021/03/10 07:32:09;;;;;;;41.63;24.33;;;4.70;99.90;;;;;;5095389;28;20686;-81
2021/03/10 07:34:37;;;;;;;54.93;32.10;;;4.80;99.90;;;;;;5095333;28;20213;-80
2021/03/10 07:37:14;;;;;;;45.67;25.47;;;4.80;99.90;;;;;;5097289;28;20289;-81
2021/03/10 07:39:43;;;;;;;44.07;25.97;;;4.80;99.90;;;;;;5095973;28;20231;-81
2021/03/10 07:42:11;;;;;;;45.20;25.43;;;4.80;99.90;;;;;;5098208;28;20210;-81
2021/03/10 07:44:38;;;;;;;46.40;27.00;;;4.90;99.90;;;;;;5099489;28;20704;-80
2021/03/10 07:47:08;;;;;;;44.17;25.23;;;4.90;99.90;;;;;;5089339;28;21006;-80
2021/03/10 07:49:37;;;;;;;43.80;25.10;;;4.90;99.90;;;;;;5093084;28;20206;-80
2021/03/10 07:52:07;;;;;;;41.77;24.87;;;4.80;99.90;;;;;;5091387;28;20306;-80
2021/03/10 07:54:34;;;;;;;44.07;25.13;;;4.80;99.90;;;;;;5099880;28;20205;-79
2021/03/10 07:57:12;;;;;;;41.43;25.20;;;4.90;99.90;;;;;;5095016;28;20264;-80
2021/03/10 07:59:42;;;;;;;42.93;25.40;;;4.90;99.90;;;;;;5099342;28;20602;-80
2021/03/10 08:02:10;;;;;;;47.13;27.40;;;5.00;99.90;;;;;;5098780;28;20222;-80
2021/03/10 08:04:38;;;;;;;45.57;26.27;;;5.20;99.90;;;;;;5098392;28;20202;-80
2021/03/10 08:07:08;;;;;;;44.67;25.10;;;5.20;99.90;;;;;;5096711;28;20601;-80
2021/03/10 08:09:36;;;;;;;48.30;29.27;;;5.20;99.90;;;;;;5096619;28;20255;-79
2021/03/10 08:12:08;;;;;;;45.33;26.03;;;5.10;99.90;;;;;;5099675;28;20222;-80
2021/03/10 08:14:39;;;;;;;43.73;24.03;;;5.30;99.90;;;;;;5099409;28;20686;-80
2021/03/10 08:17:07;;;;;;;45.10;25.27;;;5.10;99.90;;;;;;5092584;28;20221;-81
2021/03/10 08:19:33;;;;;;;42.80;25.83;;;5.40;99.90;;;;;;5095471;28;20202;-81
2021/03/10 08:22:00;;;;;;;46.13;25.33;;;5.60;99.90;;;;;;5089565;28;20305;-81
2021/03/10 08:24:29;;;;;;;43.90;25.13;;;5.70;99.90;;;;;;5090626;28;20202;-81
2021/03/10 08:26:57;;;;;;;38.13;23.77;;;5.70;99.90;;;;;;5095315;28;20550;-81
2021/03/10 08:29:26;;;;;;;41.63;24.03;;;5.60;99.90;;;;;;5093668;28;20653;-80
2021/03/10 08:31:57;;;;;;;39.80;23.37;;;5.80;99.90;;;;;;5093547;28;20197;-80
2021/03/10 08:34:36;;;;;;;41.63;24.70;;;5.80;99.90;;;;;;5096756;28;20326;-80
2021/03/10 08:37:04;;;;;;;38.03;23.10;;;5.80;99.90;;;;;;5095849;28;20218;-79
2021/03/10 08:39:31;;;;;;;41.20;23.70;;;5.90;99.90;;;;;;5094257;28;20205;-79
2021/03/10 08:41:58;;;;;;;35.93;21.23;;;6.00;99.90;;;;;;5090424;28;20249;-80
2021/03/10 08:44:26;;;;;;;36.10;21.57;;;5.90;99.90;;;;;;5091669;28;20231;-79
2021/03/10 08:46:57;;;;;;;38.07;22.70;;;6.10;99.90;;;;;;5094985;28;20304;-80
2021/03/10 08:49:31;;;;;;;39.90;22.73;;;6.00;99.90;;;;;;5089069;28;20198;-80
2021/03/10 08:52:08;;;;;;;36.53;21.53;;;5.90;99.90;;;;;;5093486;28;20197;-81
2021/03/10 08:54:54;;;;;;;36.27;21.93;;;5.80;99.90;;;;;;5097790;28;20462;-81
2021/03/10 08:57:24;;;;;;;36.87;22.00;;;5.90;99.90;;;;;;5098041;28;20546;-81
2021/03/10 08:59:50;;;;;;;38.77;22.63;;;6.30;99.90;;;;;;5094879;28;20297;-81
2021/03/10 09:02:26;;;;;;;37.87;23.43;;;6.30;99.90;;;;;;5092051;28;20549;-81
2021/03/10 09:04:54;;;;;;;37.57;22.73;;;6.30;99.90;;;;;;5093763;28;20220;-81
2021/03/10 09:07:21;;;;;;;34.50;20.87;;;6.60;99.90;;;;;;5093940;28;20236;-81
2021/03/10 09:09:55;;;;;;;33.57;20.97;;;6.30;99.90;;;;;;5083847;28;20201;-80
2021/03/10 09:12:24;;;;;;;32.70;20.27;;;6.20;99.90;;;;;;5097453;28;20221;-81
2021/03/10 09:14:51;;;;;;;34.57;21.07;;;6.60;99.90;;;;;;5096994;28;20210;-80
2021/03/10 09:17:32;;;;;;;34.47;20.53;;;6.90;99.90;;;;;;5097069;28;20304;-79
2021/03/10 09:20:02;;;;;;;33.97;20.37;;;7.00;99.90;;;;;;5097511;28;20255;-80
2021/03/10 09:22:31;;;;;;;34.67;21.23;;;7.10;99.90;;;;;;5094619;28;20315;-80
2021/03/10 09:24:59;;;;;;;34.30;21.33;;;6.80;99.90;;;;;;5093350;28;20205;-80
2021/03/10 09:27:28;;;;;;;34.43;20.87;;;7.00;99.90;;;;;;5091080;28;20757;-80
2021/03/10 09:29:56;;;;;;;34.97;20.77;;;7.20;99.90;;;;;;5096249;28;20206;-80
2021/03/10 09:32:26;;;;;;;32.93;19.67;;;7.70;99.90;;;;;;5089829;28;20567;-80
2021/03/10 09:34:56;;;;;;;33.77;20.47;;;7.50;99.90;;;;;;5093176;28;20288;-80
2021/03/10 09:37:28;;;;;;;31.30;19.57;;;7.20;99.90;;;;;;5095137;28;20244;-80
2021/03/10 09:39:55;;;;;;;33.53;19.80;;;7.20;99.90;;;;;;5093918;28;20201;-80
2021/03/10 09:42:27;;;;;;;33.73;20.47;;;7.30;99.90;;;;;;5094163;28;20256;-80
2021/03/10 09:44:55;;;;;;;35.43;21.10;;;7.50;99.90;;;;;;5097619;28;20254;-79
2021/03/10 09:47:23;;;;;;;34.77;21.77;;;7.40;99.90;;;;;;5093817;28;20247;-80
2021/03/10 09:49:56;;;;;;;33.77;20.67;;;7.30;99.90;;;;;;5096794;28;20318;-80
2021/03/10 09:52:33;;;;;;;34.30;21.30;;;7.10;99.90;;;;;;5086851;28;20666;-79
2021/03/10 09:55:03;;;;;;;32.70;20.23;;;7.40;99.90;;;;;;5094032;28;20205;-80
2021/03/10 09:57:30;;;;;;;32.33;20.43;;;7.00;99.90;;;;;;5099732;28;20229;-80
2021/03/10 09:59:57;;;;;;;33.20;20.33;;;7.70;99.90;;;;;;5097879;28;20202;-81
2021/03/10 10:02:24;;;;;;;29.97;19.03;;;7.60;99.90;;;;;;5098093;28;20265;-81
2021/03/10 10:04:59;;;;;;;30.93;19.17;;;7.40;99.90;;;;;;5094901;28;20194;-80
2021/03/10 10:07:27;;;;;;;27.60;16.37;;;7.60;99.90;;;;;;5092979;28;20274;-80
2021/03/10 10:09:54;;;;;;;29.63;18.70;;;7.80;99.90;;;;;;5082298;28;20248;-81
2021/03/10 10:12:21;;;;;;;29.50;17.93;;;8.00;99.90;;;;;;5079440;28;20229;-80
2021/03/10 10:14:48;;;;;;;26.93;17.07;;;7.90;99.90;;;;;;5090517;28;20210;-80
2021/03/10 10:17:15;;;;;;;28.47;17.37;;;8.10;99.90;;;;;;5082905;28;20271;-79
2021/03/10 10:19:41;;;;;;;24.83;15.23;;;8.00;99.90;;;;;;5087204;28;20236;-80
2021/03/10 10:22:09;;;;;;;26.47;16.40;;;7.90;99.90;;;;;;5092941;28;20245;-80
2021/03/10 10:24:36;;;;;;;27.10;16.77;;;8.10;99.90;;;;;;5084148;28;20638;-81
2021/03/10 10:27:03;;;;;;;29.17;17.40;;;8.10;99.90;;;;;;5078117;28;20307;-81
2021/03/10 10:29:29;;;;;;;27.47;17.97;;;7.90;99.90;;;;;;5088847;28;20646;-81
2021/03/10 10:31:55;;;;;;;28.53;18.03;;;8.30;99.90;;;;;;5093196;28;20194;-81
2021/03/10 10:34:22;;;;;;;26.27;16.77;;;8.30;99.90;;;;;;5085755;28;20293;-80
2021/03/10 10:36:48;;;;;;;26.33;16.23;;;8.20;99.90;;;;;;5084207;28;20224;-79
2021/03/10 10:39:15;;;;;;;26.37;17.33;;;8.30;99.90;;;;;;5085185;28;20213;-81
2021/03/10 10:41:42;;;;;;;25.60;16.73;;;8.20;99.90;;;;;;5087896;28;20253;-80
2021/03/10 10:44:09;;;;;;;28.13;17.03;;;8.50;99.90;;;;;;5087968;28;20744;-81
2021/03/10 10:46:35;;;;;;;29.67;17.53;;;8.10;99.90;;;;;;5093108;28;20220;-81
2021/03/10 10:49:01;;;;;;;26.23;16.70;;;8.40;99.90;;;;;;5094932;28;20692;-80
2021/03/10 10:51:31;;;;;;;28.80;16.93;;;8.50;99.90;;;;;;5098783;28;20194;-80
2021/03/10 10:53:57;;;;;;;28.30;16.87;;;8.10;99.90;;;;;;5096023;28;20236;-79
2021/03/10 10:56:25;;;;;;;27.47;16.47;;;8.20;99.90;;;;;;5096543;28;20217;-80
2021/03/10 10:58:51;;;;;;;26.93;17.30;;;8.20;99.90;;;;;;5092461;28;20289;-81
2021/03/10 11:01:18;;;;;;;29.03;17.57;;;8.20;99.90;;;;;;5093355;28;20237;-80
2021/03/10 11:03:44;;;;;;;28.43;16.53;;;8.20;99.90;;;;;;5101878;28;20201;-79
2021/03/10 11:06:10;;;;;;;27.70;17.27;;;8.10;99.90;;;;;;5098966;28;20649;-80
2021/03/10 11:08:37;;;;;;;28.97;17.17;;;8.30;99.90;;;;;;5099346;28;20828;-82
2021/03/10 11:11:03;;;;;;;28.27;17.43;;;8.20;99.90;;;;;;5100409;28;20208;-82
2021/03/10 11:13:31;;;;;;;27.53;16.47;;;8.30;99.90;;;;;;5086447;28;20220;-79
2021/03/10 11:15:57;;;;;;;27.97;16.00;;;8.50;99.90;;;;;;5095501;28;20264;-80
2021/03/10 11:18:24;;;;;;;26.50;16.87;;;8.50;99.90;;;;;;5090681;28;20206;-80
2021/03/10 11:20:50;;;;;;;28.90;18.37;;;8.60;99.90;;;;;;5095027;28;20750;-79
2021/03/10 11:23:16;;;;;;;23.67;14.33;;;9.10;99.90;;;;;;5098248;28;20293;-80
2021/03/10 11:25:43;;;;;;;22.90;14.63;;;8.90;99.90;;;;;;5097709;28;20224;-79
2021/03/10 11:28:09;;;;;;;22.90;14.43;;;8.40;99.90;;;;;;5097964;28;20233;-79
2021/03/10 11:30:37;;;;;;;23.00;13.40;;;8.50;99.90;;;;;;5097875;28;20227;-80
2021/03/10 11:33:03;;;;;;;22.17;13.37;;;9.00;99.90;;;;;;5096816;28;20212;-79
2021/03/10 11:35:30;;;;;;;21.70;13.30;;;8.80;99.90;;;;;;5097488;28;20205;-79
2021/03/10 11:37:56;;;;;;;22.97;13.30;;;9.30;99.90;;;;;;5096369;28;20403;-79
2021/03/10 11:40:23;;;;;;;22.97;13.03;;;9.20;99.90;;;;;;5099377;28;20240;-79
2021/03/10 11:42:49;;;;;;;23.23;13.50;;;8.70;99.90;;;;;;5096720;28;20221;-78
2021/03/10 11:45:16;;;;;;;23.77;14.50;;;8.80;99.90;;;;;;5097921;28;20208;-79
2021/03/10 11:47:43;;;;;;;25.53;14.97;;;8.80;99.90;;;;;;5086585;28;20308;-80
2021/03/10 11:50:11;;;;;;;24.87;15.80;;;8.80;99.90;;;;;;5098407;28;20210;-79
2021/03/10 11:52:38;;;;;;;25.67;15.23;;;9.10;99.90;;;;;;5094519;28;20228;-79
2021/03/10 11:55:05;;;;;;;26.00;14.97;;;9.30;99.90;;;;;;5091745;28;20669;-79
2021/03/10 11:57:32;;;;;;;27.90;15.90;;;9.10;99.90;;;;;;5098242;28;20301;-79
2021/03/10 11:59:58;;;;;;;27.97;16.53;;;9.00;99.90;;;;;;5098587;28;20201;-79
2021/03/10 12:02:24;;;;;;;26.03;16.87;;;9.00;99.90;;;;;;5096530;28;20306;-78
2021/03/10 12:04:52;;;;;;;28.63;17.00;;;9.00;99.90;;;;;;5088074;28;20202;-78
2021/03/10 12:07:18;;;;;;;28.37;16.67;;;9.10;99.90;;;;;;5098389;28;20226;-79
2021/03/10 12:09:44;;;;;;;29.03;17.23;;;9.40;99.90;;;;;;5097634;28;20749;-79
2021/03/10 12:12:11;;;;;;;26.97;16.53;;;9.30;99.90;;;;;;5090112;28;20704;-79
2021/03/10 12:14:37;;;;;;;25.50;15.57;;;9.50;99.90;;;;;;5094377;28;20244;-79
2021/03/10 12:17:04;;;;;;;26.27;16.00;;;9.40;99.90;;;;;;5092541;28;20309;-79
2021/03/10 12:19:31;;;;;;;25.63;15.93;;;9.40;99.90;;;;;;5080570;28;20214;-81
2021/03/10 12:21:59;;;;;;;26.70;16.20;;;9.20;99.90;;;;;;5095320;28;20218;-80
2021/03/10 12:24:25;;;;;;;28.63;17.10;;;9.30;99.90;;;;;;5096066;28;20270;-81
2021/03/10 12:26:52;;;;;;;26.57;16.50;;;9.40;99.90;;;;;;5097249;28;20237;-80
2021/03/10 12:29:19;;;;;;;27.27;15.90;;;9.40;99.90;;;;;;5097005;28;20201;-81
2021/03/10 12:31:45;;;;;;;27.10;16.43;;;9.20;99.90;;;;;;5082842;28;20643;-81
2021/03/10 12:34:11;;;;;;;27.30;16.60;;;9.20;99.90;;;;;;5095461;28;20347;-81
2021/03/10 12:36:38;;;;;;;31.80;20.17;;;9.00;99.90;;;;;;5086001;28;20719;-80
2021/03/10 12:39:06;;;;;;;29.90;19.00;;;9.40;99.90;;;;;;5094507;28;20233;-81
2021/03/10 12:41:33;;;;;;;26.57;16.17;;;9.70;99.90;;;;;;5092293;28;20209;-81
2021/03/10 12:44:00;;;;;;;28.33;18.03;;;9.80;99.90;;;;;;5096736;28;20231;-80
2021/03/10 12:46:26;;;;;;;27.90;17.53;;;9.80;99.90;;;;;;5089627;28;20301;-81